sensor_id;sensor_type;location;lat;lon;timestamp;P1;durP1;ratioP1;P2;durP2;ratioP2
5040;SDS011;2539;52.568;13.364;2022-08-03T00:01:58;9.80;;;5.57;;
5040;SDS011;2539;52.568;13.364;2022-08-03T00:04:26;16.50;;;4.87;;
5040;SDS011;2539;52.568;13.364;2022-08-03T00:06:52;7.87;;;5.10;;
5040;SDS011;2539;52.568;13.364;2022-08-03T00:09:19;7.40;;;4.27;;
5040;SDS011;2539;52.568;13.364;2022-08-03T00:11:45;8.93;;;5.10;;
5040;SDS011;2539;52.568;13.364;2022-08-03T00:14:11;12.17;;;5.20;;
5040;SDS011;2539;52.568;13.364;2022-08-03T00:16:37;8.50;;;4.57;;
5040;SDS011;2539;52.568;13.364;2022-08-03T00:19:02;9.60;;;4.60;;
5040;SDS011;2539;52.568;13.364;2022-08-03T00:21:29;6.33;;;4.83;;
5040;SDS011;2539;52.568;13.364;2022-08-03T00:23:54;5.80;;;5.03;;
5040;SDS011;2539;52.568;13.364;2022-08-03T00:26:20;7.20;;;4.70;;
5040;SDS011;2539;52.568;13.364;2022-08-03T00:28:47;8.40;;;4.57;;
5040;SDS011;2539;52.568;13.364;2022-08-03T00:31:14;7.00;;;4.87;;
5040;SDS011;2539;52.568;13.364;2022-08-03T00:33:40;9.50;;;5.37;;
5040;SDS011;2539;52.568;13.364;2022-08-03T00:36:07;6.20;;;4.67;;
5040;SDS011;2539;52.568;13.364;2022-08-03T00:38:33;7.30;;;5.27;;
5040;SDS011;2539;52.568;13.364;2022-08-03T00:40:59;9.02;;;4.85;;
5040;SDS011;2539;52.568;13.364;2022-08-03T00:43:25;6.70;;;5.40;;
5040;SDS011;2539;52.568;13.364;2022-08-03T00:45:52;6.90;;;4.97;;
5040;SDS011;2539;52.568;13.364;2022-08-03T00:48:19;6.40;;;4.60;;
5040;SDS011;2539;52.568;13.364;2022-08-03T00:50:45;6.90;;;5.00;;
5040;SDS011;2539;52.568;13.364;2022-08-03T00:53:12;9.07;;;5.00;;
5040;SDS011;2539;52.568;13.364;2022-08-03T00:55:39;8.00;;;4.90;;
5040;SDS011;2539;52.568;13.364;2022-08-03T00:58:07;7.60;;;4.43;;
5040;SDS011;2539;52.568;13.364;2022-08-03T01:00:36;8.63;;;5.00;;
5040;SDS011;2539;52.568;13.364;2022-08-03T01:03:03;9.10;;;5.57;;
5040;SDS011;2539;52.568;13.364;2022-08-03T01:05:32;7.30;;;5.30;;
5040;SDS011;2539;52.568;13.364;2022-08-03T01:08:27;6.03;;;4.53;;
5040;SDS011;2539;52.568;13.364;2022-08-03T01:11:08;5.67;;;5.07;;
5040;SDS011;2539;52.568;13.364;2022-08-03T01:14:01;5.60;;;4.73;;
5040;SDS011;2539;52.568;13.364;2022-08-03T01:16:41;6.60;;;4.70;;
5040;SDS011;2539;52.568;13.364;2022-08-03T01:25:05;5.93;;;4.67;;
5040;SDS011;2539;52.568;13.364;2022-08-03T01:30:39;5.37;;;4.40;;
5040;SDS011;2539;52.568;13.364;2022-08-03T01:33:11;7.60;;;4.40;;
5040;SDS011;2539;52.568;13.364;2022-08-03T01:36:06;6.50;;;4.57;;
5040;SDS011;2539;52.568;13.364;2022-08-03T01:38:39;5.40;;;4.90;;
5040;SDS011;2539;52.568;13.364;2022-08-03T01:41:12;9.57;;;5.70;;
5040;SDS011;2539;52.568;13.364;2022-08-03T01:43:43;8.80;;;4.93;;
5040;SDS011;2539;52.568;13.364;2022-08-03T01:46:13;6.07;;;5.10;;
5040;SDS011;2539;52.568;13.364;2022-08-03T01:48:42;8.20;;;4.50;;
5040;SDS011;2539;52.568;13.364;2022-08-03T01:51:09;7.73;;;4.90;;
5040;SDS011;2539;52.568;13.364;2022-08-03T01:53:37;6.60;;;4.80;;
5040;SDS011;2539;52.568;13.364;2022-08-03T01:56:07;5.07;;;4.57;;
5040;SDS011;2539;52.568;13.364;2022-08-03T01:58:34;6.40;;;4.77;;
5040;SDS011;2539;52.568;13.364;2022-08-03T02:01:02;6.70;;;4.40;;
5040;SDS011;2539;52.568;13.364;2022-08-03T02:03:31;6.20;;;3.97;;
5040;SDS011;2539;52.568;13.364;2022-08-03T02:06:01;9.17;;;5.10;;
5040;SDS011;2539;52.568;13.364;2022-08-03T02:08:27;4.77;;;4.20;;
5040;SDS011;2539;52.568;13.364;2022-08-03T02:10:55;10.50;;;4.60;;
5040;SDS011;2539;52.568;13.364;2022-08-03T02:13:23;5.82;;;4.30;;
5040;SDS011;2539;52.568;13.364;2022-08-03T02:15:50;5.77;;;4.50;;
5040;SDS011;2539;52.568;13.364;2022-08-03T02:18:17;5.17;;;4.67;;
5040;SDS011;2539;52.568;13.364;2022-08-03T02:20:45;5.10;;;4.63;;
5040;SDS011;2539;52.568;13.364;2022-08-03T02:23:15;7.43;;;4.60;;
5040;SDS011;2539;52.568;13.364;2022-08-03T02:25:43;6.97;;;4.60;;
5040;SDS011;2539;52.568;13.364;2022-08-03T02:28:15;8.10;;;4.53;;
5040;SDS011;2539;52.568;13.364;2022-08-03T02:30:45;5.80;;;4.40;;
5040;SDS011;2539;52.568;13.364;2022-08-03T02:33:25;4.63;;;3.90;;
5040;SDS011;2539;52.568;13.364;2022-08-03T02:35:55;6.43;;;4.10;;
5040;SDS011;2539;52.568;13.364;2022-08-03T02:38:25;7.00;;;4.40;;
5040;SDS011;2539;52.568;13.364;2022-08-03T02:40:56;4.87;;;4.37;;
5040;SDS011;2539;52.568;13.364;2022-08-03T02:43:23;8.80;;;4.37;;
5040;SDS011;2539;52.568;13.364;2022-08-03T02:45:51;7.30;;;4.47;;
5040;SDS011;2539;52.568;13.364;2022-08-03T02:48:19;5.77;;;4.60;;
5040;SDS011;2539;52.568;13.364;2022-08-03T02:50:49;10.30;;;4.40;;
5040;SDS011;2539;52.568;13.364;2022-08-03T02:53:21;5.97;;;4.30;;
5040;SDS011;2539;52.568;13.364;2022-08-03T02:55:49;5.23;;;4.40;;
5040;SDS011;2539;52.568;13.364;2022-08-03T02:58:16;4.90;;;4.40;;
5040;SDS011;2539;52.568;13.364;2022-08-03T03:00:45;8.10;;;5.83;;
5040;SDS011;2539;52.568;13.364;2022-08-03T03:03:12;5.97;;;4.90;;
5040;SDS011;2539;52.568;13.364;2022-08-03T03:05:40;4.97;;;4.50;;
5040;SDS011;2539;52.568;13.364;2022-08-03T03:08:09;11.10;;;4.77;;
5040;SDS011;2539;52.568;13.364;2022-08-03T03:10:38;8.93;;;4.67;;
5040;SDS011;2539;52.568;13.364;2022-08-03T03:13:06;5.43;;;4.70;;
5040;SDS011;2539;52.568;13.364;2022-08-03T03:15:33;7.60;;;4.80;;
5040;SDS011;2539;52.568;13.364;2022-08-03T03:18:01;11.33;;;5.00;;
5040;SDS011;2539;52.568;13.364;2022-08-03T03:20:28;5.50;;;4.50;;
5040;SDS011;2539;52.568;13.364;2022-08-03T03:22:55;5.30;;;4.80;;
5040;SDS011;2539;52.568;13.364;2022-08-03T03:25:24;5.00;;;4.50;;
5040;SDS011;2539;52.568;13.364;2022-08-03T03:27:50;4.93;;;4.53;;
5040;SDS011;2539;52.568;13.364;2022-08-03T03:30:17;6.93;;;4.80;;
5040;SDS011;2539;52.568;13.364;2022-08-03T03:32:43;8.30;;;4.83;;
5040;SDS011;2539;52.568;13.364;2022-08-03T03:35:09;5.57;;;4.93;;
5040;SDS011;2539;52.568;13.364;2022-08-03T03:37:37;9.83;;;5.27;;
5040;SDS011;2539;52.568;13.364;2022-08-03T03:40:03;7.33;;;4.60;;
5040;SDS011;2539;52.568;13.364;2022-08-03T03:42:30;6.90;;;4.60;;
5040;SDS011;2539;52.568;13.364;2022-08-03T03:44:56;5.50;;;4.80;;
5040;SDS011;2539;52.568;13.364;2022-08-03T03:47:23;6.60;;;4.90;;
5040;SDS011;2539;52.568;13.364;2022-08-03T03:49:49;6.10;;;5.00;;
5040;SDS011;2539;52.568;13.364;2022-08-03T03:52:15;11.63;;;5.10;;
5040;SDS011;2539;52.568;13.364;2022-08-03T03:54:42;8.43;;;5.40;;
5040;SDS011;2539;52.568;13.364;2022-08-03T03:57:12;6.83;;;5.43;;
5040;SDS011;2539;52.568;13.364;2022-08-03T03:59:41;7.83;;;5.50;;
5040;SDS011;2539;52.568;13.364;2022-08-03T04:02:08;10.00;;;5.50;;
5040;SDS011;2539;52.568;13.364;2022-08-03T04:04:36;7.80;;;5.80;;
5040;SDS011;2539;52.568;13.364;2022-08-03T04:07:22;7.73;;;6.00;;
5040;SDS011;2539;52.568;13.364;2022-08-03T04:10:12;9.07;;;4.93;;
5040;SDS011;2539;52.568;13.364;2022-08-03T04:13:02;6.33;;;4.90;;
5040;SDS011;2539;52.568;13.364;2022-08-03T04:15:34;7.90;;;5.50;;
5040;SDS011;2539;52.568;13.364;2022-08-03T04:18:06;7.60;;;4.77;;
5040;SDS011;2539;52.568;13.364;2022-08-03T04:20:37;9.13;;;5.20;;
5040;SDS011;2539;52.568;13.364;2022-08-03T04:23:05;7.17;;;4.90;;
5040;SDS011;2539;52.568;13.364;2022-08-03T04:25:33;10.40;;;5.07;;
5040;SDS011;2539;52.568;13.364;2022-08-03T04:28:04;7.00;;;5.90;;
5040;SDS011;2539;52.568;13.364;2022-08-03T04:30:32;7.63;;;5.30;;
5040;SDS011;2539;52.568;13.364;2022-08-03T04:32:59;8.60;;;5.63;;
5040;SDS011;2539;52.568;13.364;2022-08-03T04:35:31;8.40;;;5.30;;
5040;SDS011;2539;52.568;13.364;2022-08-03T04:38:00;13.07;;;6.90;;
5040;SDS011;2539;52.568;13.364;2022-08-03T04:40:32;9.77;;;6.73;;
5040;SDS011;2539;52.568;13.364;2022-08-03T04:42:59;12.60;;;5.97;;
5040;SDS011;2539;52.568;13.364;2022-08-03T04:45:26;8.37;;;5.77;;
5040;SDS011;2539;52.568;13.364;2022-08-03T04:47:54;9.03;;;5.47;;
5040;SDS011;2539;52.568;13.364;2022-08-03T04:50:20;6.83;;;4.83;;
5040;SDS011;2539;52.568;13.364;2022-08-03T04:52:47;9.20;;;5.10;;
5040;SDS011;2539;52.568;13.364;2022-08-03T04:55:24;6.60;;;4.33;;
5040;SDS011;2539;52.568;13.364;2022-08-03T04:57:51;5.83;;;4.23;;
5040;SDS011;2539;52.568;13.364;2022-08-03T05:00:17;9.80;;;3.97;;
5040;SDS011;2539;52.568;13.364;2022-08-03T05:02:43;5.90;;;4.20;;
5040;SDS011;2539;52.568;13.364;2022-08-03T05:05:10;9.88;;;5.00;;
5040;SDS011;2539;52.568;13.364;2022-08-03T05:07:36;6.20;;;4.53;;
5040;SDS011;2539;52.568;13.364;2022-08-03T05:10:03;5.73;;;4.33;;
5040;SDS011;2539;52.568;13.364;2022-08-03T05:12:31;6.13;;;4.23;;
5040;SDS011;2539;52.568;13.364;2022-08-03T05:14:57;8.37;;;4.00;;
5040;SDS011;2539;52.568;13.364;2022-08-03T05:17:24;6.75;;;3.40;;
5040;SDS011;2539;52.568;13.364;2022-08-03T05:19:50;5.17;;;3.60;;
5040;SDS011;2539;52.568;13.364;2022-08-03T05:22:16;7.50;;;3.93;;
5040;SDS011;2539;52.568;13.364;2022-08-03T05:24:42;6.50;;;3.50;;
5040;SDS011;2539;52.568;13.364;2022-08-03T05:27:09;11.37;;;3.90;;
5040;SDS011;2539;52.568;13.364;2022-08-03T05:29:37;15.50;;;3.97;;
5040;SDS011;2539;52.568;13.364;2022-08-03T05:32:04;7.13;;;3.53;;
5040;SDS011;2539;52.568;13.364;2022-08-03T05:34:30;8.57;;;3.58;;
5040;SDS011;2539;52.568;13.364;2022-08-03T05:36:56;8.70;;;3.53;;
5040;SDS011;2539;52.568;13.364;2022-08-03T05:39:22;8.17;;;3.73;;
5040;SDS011;2539;52.568;13.364;2022-08-03T05:41:48;7.60;;;3.57;;
5040;SDS011;2539;52.568;13.364;2022-08-03T05:44:13;10.20;;;3.20;;
5040;SDS011;2539;52.568;13.364;2022-08-03T05:46:39;7.38;;;3.38;;
5040;SDS011;2539;52.568;13.364;2022-08-03T05:49:05;6.33;;;3.63;;
5040;SDS011;2539;52.568;13.364;2022-08-03T05:51:32;16.33;;;3.90;;
5040;SDS011;2539;52.568;13.364;2022-08-03T05:53:58;7.67;;;3.50;;
5040;SDS011;2539;52.568;13.364;2022-08-03T05:56:24;7.90;;;3.80;;
5040;SDS011;2539;52.568;13.364;2022-08-03T05:58:51;11.50;;;3.40;;
5040;SDS011;2539;52.568;13.364;2022-08-03T06:01:17;7.80;;;3.53;;
5040;SDS011;2539;52.568;13.364;2022-08-03T06:03:46;8.57;;;3.47;;
5040;SDS011;2539;52.568;13.364;2022-08-03T06:06:13;6.47;;;3.33;;
5040;SDS011;2539;52.568;13.364;2022-08-03T06:08:40;6.53;;;3.17;;
5040;SDS011;2539;52.568;13.364;2022-08-03T06:11:07;9.60;;;4.33;;
5040;SDS011;2539;52.568;13.364;2022-08-03T06:13:33;10.57;;;4.23;;
5040;SDS011;2539;52.568;13.364;2022-08-03T06:15:59;7.70;;;4.07;;
5040;SDS011;2539;52.568;13.364;2022-08-03T06:18:26;6.83;;;3.63;;
5040;SDS011;2539;52.568;13.364;2022-08-03T06:20:52;7.90;;;3.73;;
5040;SDS011;2539;52.568;13.364;2022-08-03T06:23:19;4.13;;;3.00;;
5040;SDS011;2539;52.568;13.364;2022-08-03T06:25:45;6.40;;;3.10;;
5040;SDS011;2539;52.568;13.364;2022-08-03T06:28:12;5.23;;;3.50;;
5040;SDS011;2539;52.568;13.364;2022-08-03T06:30:43;5.60;;;3.80;;
5040;SDS011;2539;52.568;13.364;2022-08-03T06:33:09;7.53;;;3.13;;
5040;SDS011;2539;52.568;13.364;2022-08-03T06:35:34;8.43;;;3.80;;
5040;SDS011;2539;52.568;13.364;2022-08-03T06:38:00;14.83;;;3.87;;
5040;SDS011;2539;52.568;13.364;2022-08-03T06:40:27;8.67;;;3.40;;
5040;SDS011;2539;52.568;13.364;2022-08-03T06:42:57;8.57;;;3.57;;
5040;SDS011;2539;52.568;13.364;2022-08-03T06:45:24;5.43;;;3.40;;
5040;SDS011;2539;52.568;13.364;2022-08-03T06:48:00;9.90;;;3.17;;
5040;SDS011;2539;52.568;13.364;2022-08-03T06:50:29;13.33;;;3.40;;
5040;SDS011;2539;52.568;13.364;2022-08-03T06:52:55;8.33;;;3.20;;
5040;SDS011;2539;52.568;13.364;2022-08-03T06:55:22;10.90;;;3.60;;
5040;SDS011;2539;52.568;13.364;2022-08-03T06:57:48;6.60;;;2.77;;
5040;SDS011;2539;52.568;13.364;2022-08-03T07:00:15;13.37;;;7.20;;
5040;SDS011;2539;52.568;13.364;2022-08-03T07:02:41;21.80;;;5.60;;
5040;SDS011;2539;52.568;13.364;2022-08-03T07:05:07;8.40;;;3.00;;
5040;SDS011;2539;52.568;13.364;2022-08-03T07:07:35;7.40;;;2.80;;
5040;SDS011;2539;52.568;13.364;2022-08-03T07:10:02;7.33;;;2.90;;
5040;SDS011;2539;52.568;13.364;2022-08-03T07:12:30;9.77;;;2.65;;
5040;SDS011;2539;52.568;13.364;2022-08-03T07:14:57;5.97;;;2.30;;
5040;SDS011;2539;52.568;13.364;2022-08-03T07:17:24;7.47;;;2.85;;
5040;SDS011;2539;52.568;13.364;2022-08-03T07:19:50;6.00;;;2.92;;
5040;SDS011;2539;52.568;13.364;2022-08-03T07:22:16;8.88;;;3.58;;
5040;SDS011;2539;52.568;13.364;2022-08-03T07:24:42;12.90;;;5.80;;
5040;SDS011;2539;52.568;13.364;2022-08-03T07:27:09;9.60;;;2.88;;
5040;SDS011;2539;52.568;13.364;2022-08-03T07:29:35;5.93;;;2.83;;
5040;SDS011;2539;52.568;13.364;2022-08-03T07:32:02;7.07;;;2.40;;
5040;SDS011;2539;52.568;13.364;2022-08-03T07:34:29;6.35;;;2.17;;
5040;SDS011;2539;52.568;13.364;2022-08-03T07:36:56;5.13;;;2.35;;
5040;SDS011;2539;52.568;13.364;2022-08-03T07:39:23;8.43;;;3.22;;
5040;SDS011;2539;52.568;13.364;2022-08-03T07:41:49;7.95;;;2.85;;
5040;SDS011;2539;52.568;13.364;2022-08-03T07:44:16;6.03;;;2.72;;
5040;SDS011;2539;52.568;13.364;2022-08-03T07:46:43;3.75;;;2.55;;
5040;SDS011;2539;52.568;13.364;2022-08-03T07:49:09;6.22;;;2.33;;
5040;SDS011;2539;52.568;13.364;2022-08-03T07:51:36;4.25;;;2.13;;
5040;SDS011;2539;52.568;13.364;2022-08-03T07:54:02;4.72;;;2.22;;
5040;SDS011;2539;52.568;13.364;2022-08-03T07:56:28;7.47;;;2.15;;
5040;SDS011;2539;52.568;13.364;2022-08-03T07:58:55;3.30;;;2.55;;
5040;SDS011;2539;52.568;13.364;2022-08-03T08:01:21;12.95;;;3.28;;
5040;SDS011;2539;52.568;13.364;2022-08-03T08:03:48;5.82;;;3.08;;
5040;SDS011;2539;52.568;13.364;2022-08-03T08:06:16;4.45;;;2.28;;
5040;SDS011;2539;52.568;13.364;2022-08-03T08:08:42;5.13;;;2.47;;
5040;SDS011;2539;52.568;13.364;2022-08-03T08:11:09;4.55;;;2.40;;
5040;SDS011;2539;52.568;13.364;2022-08-03T08:13:35;10.05;;;2.88;;
5040;SDS011;2539;52.568;13.364;2022-08-03T08:16:04;5.28;;;3.05;;
5040;SDS011;2539;52.568;13.364;2022-08-03T08:18:31;4.07;;;1.95;;
5040;SDS011;2539;52.568;13.364;2022-08-03T08:20:56;3.72;;;2.10;;
5040;SDS011;2539;52.568;13.364;2022-08-03T08:23:22;10.53;;;2.10;;
5040;SDS011;2539;52.568;13.364;2022-08-03T08:25:48;8.38;;;2.13;;
5040;SDS011;2539;52.568;13.364;2022-08-03T08:28:19;5.35;;;2.25;;
5040;SDS011;2539;52.568;13.364;2022-08-03T08:30:46;5.40;;;2.13;;
5040;SDS011;2539;52.568;13.364;2022-08-03T08:33:13;9.63;;;2.95;;
5040;SDS011;2539;52.568;13.364;2022-08-03T08:35:39;5.30;;;2.10;;
5040;SDS011;2539;52.568;13.364;2022-08-03T08:38:05;6.18;;;2.03;;
5040;SDS011;2539;52.568;13.364;2022-08-03T08:40:32;3.75;;;3.08;;
5040;SDS011;2539;52.568;13.364;2022-08-03T08:42:58;4.63;;;2.20;;
5040;SDS011;2539;52.568;13.364;2022-08-03T08:45:24;3.00;;;2.03;;
5040;SDS011;2539;52.568;13.364;2022-08-03T08:47:51;4.45;;;2.13;;
5040;SDS011;2539;52.568;13.364;2022-08-03T08:50:20;3.58;;;1.90;;
5040;SDS011;2539;52.568;13.364;2022-08-03T08:52:48;5.28;;;1.98;;
5040;SDS011;2539;52.568;13.364;2022-08-03T08:55:18;6.00;;;2.65;;
5040;SDS011;2539;52.568;13.364;2022-08-03T08:57:48;9.23;;;2.33;;
5040;SDS011;2539;52.568;13.364;2022-08-03T09:00:15;3.88;;;2.10;;
5040;SDS011;2539;52.568;13.364;2022-08-03T09:02:43;8.05;;;2.15;;
5040;SDS011;2539;52.568;13.364;2022-08-03T09:05:11;8.93;;;3.28;;
5040;SDS011;2539;52.568;13.364;2022-08-03T09:07:38;2.58;;;1.75;;
5040;SDS011;2539;52.568;13.364;2022-08-03T09:10:06;5.50;;;2.30;;
5040;SDS011;2539;52.568;13.364;2022-08-03T09:12:42;5.47;;;2.80;;
5040;SDS011;2539;52.568;13.364;2022-08-03T09:15:21;9.57;;;2.53;;
5040;SDS011;2539;52.568;13.364;2022-08-03T09:17:53;5.28;;;2.30;;
5040;SDS011;2539;52.568;13.364;2022-08-03T09:20:21;3.38;;;1.80;;
5040;SDS011;2539;52.568;13.364;2022-08-03T09:22:58;2.95;;;1.88;;
5040;SDS011;2539;52.568;13.364;2022-08-03T09:25:26;4.25;;;2.25;;
5040;SDS011;2539;52.568;13.364;2022-08-03T09:30:39;4.15;;;2.58;;
5040;SDS011;2539;52.568;13.364;2022-08-03T09:33:08;3.65;;;2.38;;
5040;SDS011;2539;52.568;13.364;2022-08-03T09:35:43;5.63;;;2.20;;
5040;SDS011;2539;52.568;13.364;2022-08-03T09:38:18;3.33;;;2.00;;
5040;SDS011;2539;52.568;13.364;2022-08-03T09:40:48;5.38;;;2.40;;
5040;SDS011;2539;52.568;13.364;2022-08-03T09:43:15;5.75;;;2.10;;
5040;SDS011;2539;52.568;13.364;2022-08-03T09:45:41;3.88;;;2.63;;
5040;SDS011;2539;52.568;13.364;2022-08-03T09:48:22;6.45;;;2.60;;
5040;SDS011;2539;52.568;13.364;2022-08-03T09:50:53;6.63;;;2.20;;
5040;SDS011;2539;52.568;13.364;2022-08-03T09:53:24;2.53;;;1.80;;
5040;SDS011;2539;52.568;13.364;2022-08-03T09:55:54;3.50;;;2.20;;
5040;SDS011;2539;52.568;13.364;2022-08-03T09:58:23;3.78;;;2.45;;
5040;SDS011;2539;52.568;13.364;2022-08-03T10:00:58;7.55;;;3.00;;
5040;SDS011;2539;52.568;13.364;2022-08-03T10:03:27;6.90;;;1.95;;
5040;SDS011;2539;52.568;13.364;2022-08-03T10:05:54;4.10;;;1.98;;
5040;SDS011;2539;52.568;13.364;2022-08-03T10:08:21;4.13;;;2.00;;
5040;SDS011;2539;52.568;13.364;2022-08-03T10:10:50;4.30;;;2.08;;
5040;SDS011;2539;52.568;13.364;2022-08-03T10:13:21;3.05;;;2.28;;
5040;SDS011;2539;52.568;13.364;2022-08-03T10:15:48;3.90;;;2.03;;
5040;SDS011;2539;52.568;13.364;2022-08-03T10:18:14;4.60;;;1.90;;
5040;SDS011;2539;52.568;13.364;2022-08-03T10:23:16;5.72;;;2.50;;
5040;SDS011;2539;52.568;13.364;2022-08-03T10:25:46;5.00;;;2.47;;
5040;SDS011;2539;52.568;13.364;2022-08-03T10:28:14;5.60;;;1.90;;
5040;SDS011;2539;52.568;13.364;2022-08-03T10:30:43;3.42;;;1.60;;
5040;SDS011;2539;52.568;13.364;2022-08-03T10:33:16;3.17;;;2.08;;
5040;SDS011;2539;52.568;13.364;2022-08-03T10:35:44;5.13;;;1.88;;
5040;SDS011;2539;52.568;13.364;2022-08-03T10:38:16;5.90;;;2.20;;
5040;SDS011;2539;52.568;13.364;2022-08-03T10:40:44;5.80;;;3.00;;
5040;SDS011;2539;52.568;13.364;2022-08-03T10:43:11;5.85;;;2.40;;
5040;SDS011;2539;52.568;13.364;2022-08-03T10:45:46;5.90;;;2.55;;
5040;SDS011;2539;52.568;13.364;2022-08-03T10:48:12;5.03;;;2.40;;
5040;SDS011;2539;52.568;13.364;2022-08-03T10:50:40;5.30;;;2.45;;
5040;SDS011;2539;52.568;13.364;2022-08-03T10:53:08;10.13;;;2.00;;
5040;SDS011;2539;52.568;13.364;2022-08-03T10:55:36;3.50;;;2.28;;
5040;SDS011;2539;52.568;13.364;2022-08-03T11:01:09;4.03;;;2.53;;
5040;SDS011;2539;52.568;13.364;2022-08-03T11:06:18;3.25;;;1.80;;
5040;SDS011;2539;52.568;13.364;2022-08-03T11:08:46;4.05;;;2.30;;
5040;SDS011;2539;52.568;13.364;2022-08-03T11:14:03;6.78;;;6.07;;
5040;SDS011;2539;52.568;13.364;2022-08-03T11:16:49;4.45;;;3.22;;
5040;SDS011;2539;52.568;13.364;2022-08-03T11:19:43;3.20;;;2.13;;
5040;SDS011;2539;52.568;13.364;2022-08-03T11:22:11;4.97;;;2.85;;
5040;SDS011;2539;52.568;13.364;2022-08-03T11:35:08;3.30;;;1.60;;
5040;SDS011;2539;52.568;13.364;2022-08-03T11:43:10;6.65;;;2.22;;
5040;SDS011;2539;52.568;13.364;2022-08-03T11:48:34;4.82;;;2.13;;
5040;SDS011;2539;52.568;13.364;2022-08-03T11:51:03;3.40;;;2.78;;
5040;SDS011;2539;52.568;13.364;2022-08-03T11:53:32;3.03;;;1.42;;
5040;SDS011;2539;52.568;13.364;2022-08-03T11:55:59;4.63;;;1.90;;
5040;SDS011;2539;52.568;13.364;2022-08-03T11:58:27;2.03;;;1.63;;
5040;SDS011;2539;52.568;13.364;2022-08-03T12:01:03;2.83;;;2.13;;
5040;SDS011;2539;52.568;13.364;2022-08-03T12:03:31;4.72;;;2.17;;
5040;SDS011;2539;52.568;13.364;2022-08-03T12:05:58;7.75;;;1.88;;
5040;SDS011;2539;52.568;13.364;2022-08-03T12:08:31;2.58;;;2.05;;
5040;SDS011;2539;52.568;13.364;2022-08-03T12:10:59;5.60;;;2.60;;
5040;SDS011;2539;52.568;13.364;2022-08-03T12:13:34;3.88;;;2.20;;
5040;SDS011;2539;52.568;13.364;2022-08-03T12:16:08;6.72;;;2.60;;
5040;SDS011;2539;52.568;13.364;2022-08-03T12:18:35;4.78;;;2.13;;
5040;SDS011;2539;52.568;13.364;2022-08-03T12:21:03;2.83;;;1.90;;
5040;SDS011;2539;52.568;13.364;2022-08-03T12:23:32;5.72;;;2.13;;
5040;SDS011;2539;52.568;13.364;2022-08-03T12:26:04;3.42;;;1.65;;
5040;SDS011;2539;52.568;13.364;2022-08-03T12:28:32;4.43;;;1.92;;
5040;SDS011;2539;52.568;13.364;2022-08-03T12:31:03;4.70;;;1.77;;
5040;SDS011;2539;52.568;13.364;2022-08-03T12:33:31;7.47;;;3.15;;
5040;SDS011;2539;52.568;13.364;2022-08-03T12:36:17;5.10;;;2.00;;
5040;SDS011;2539;52.568;13.364;2022-08-03T12:38:44;2.42;;;1.92;;
5040;SDS011;2539;52.568;13.364;2022-08-03T12:41:30;3.65;;;3.22;;
5040;SDS011;2539;52.568;13.364;2022-08-03T12:43:58;4.80;;;2.20;;
5040;SDS011;2539;52.568;13.364;2022-08-03T12:46:43;4.55;;;2.90;;
5040;SDS011;2539;52.568;13.364;2022-08-03T12:49:09;4.05;;;2.00;;
5040;SDS011;2539;52.568;13.364;2022-08-03T12:54:08;5.57;;;1.98;;
5040;SDS011;2539;52.568;13.364;2022-08-03T12:59:27;4.35;;;2.38;;
5040;SDS011;2539;52.568;13.364;2022-08-03T13:01:54;3.75;;;2.17;;
5040;SDS011;2539;52.568;13.364;2022-08-03T13:04:32;5.93;;;2.75;;
5040;SDS011;2539;52.568;13.364;2022-08-03T13:07:01;4.75;;;3.05;;
5040;SDS011;2539;52.568;13.364;2022-08-03T13:09:41;6.20;;;2.10;;
5040;SDS011;2539;52.568;13.364;2022-08-03T13:12:19;4.55;;;2.38;;
5040;SDS011;2539;52.568;13.364;2022-08-03T13:14:47;5.72;;;2.35;;
5040;SDS011;2539;52.568;13.364;2022-08-03T13:17:15;7.07;;;3.28;;
5040;SDS011;2539;52.568;13.364;2022-08-03T13:19:42;3.38;;;1.80;;
5040;SDS011;2539;52.568;13.364;2022-08-03T13:24:41;3.13;;;2.05;;
5040;SDS011;2539;52.568;13.364;2022-08-03T13:27:09;3.15;;;1.60;;
5040;SDS011;2539;52.568;13.364;2022-08-03T13:29:35;3.55;;;2.17;;
5040;SDS011;2539;52.568;13.364;2022-08-03T13:32:02;6.18;;;2.33;;
5040;SDS011;2539;52.568;13.364;2022-08-03T13:34:29;3.10;;;2.17;;
5040;SDS011;2539;52.568;13.364;2022-08-03T13:36:56;3.15;;;1.98;;
5040;SDS011;2539;52.568;13.364;2022-08-03T13:39:22;4.90;;;1.92;;
5040;SDS011;2539;52.568;13.364;2022-08-03T13:41:47;7.05;;;2.10;;
5040;SDS011;2539;52.568;13.364;2022-08-03T13:44:14;5.15;;;2.72;;
5040;SDS011;2539;52.568;13.364;2022-08-03T13:46:39;3.72;;;1.38;;
5040;SDS011;2539;52.568;13.364;2022-08-03T13:49:06;3.40;;;2.33;;
5040;SDS011;2539;52.568;13.364;2022-08-03T13:51:33;4.97;;;2.00;;
5040;SDS011;2539;52.568;13.364;2022-08-03T13:53:59;3.90;;;2.22;;
5040;SDS011;2539;52.568;13.364;2022-08-03T13:56:25;9.77;;;2.35;;
5040;SDS011;2539;52.568;13.364;2022-08-03T13:58:52;3.92;;;2.35;;
5040;SDS011;2539;52.568;13.364;2022-08-03T14:01:19;5.45;;;2.35;;
5040;SDS011;2539;52.568;13.364;2022-08-03T14:03:44;5.25;;;1.95;;
5040;SDS011;2539;52.568;13.364;2022-08-03T14:06:12;3.97;;;2.28;;
5040;SDS011;2539;52.568;13.364;2022-08-03T14:08:38;3.47;;;2.00;;
5040;SDS011;2539;52.568;13.364;2022-08-03T14:11:04;3.00;;;2.33;;
5040;SDS011;2539;52.568;13.364;2022-08-03T14:13:30;3.10;;;1.90;;
5040;SDS011;2539;52.568;13.364;2022-08-03T14:15:57;6.45;;;4.50;;
5040;SDS011;2539;52.568;13.364;2022-08-03T14:18:23;4.88;;;2.60;;
5040;SDS011;2539;52.568;13.364;2022-08-03T14:20:49;4.72;;;2.63;;
5040;SDS011;2539;52.568;13.364;2022-08-03T14:23:15;3.92;;;2.80;;
5040;SDS011;2539;52.568;13.364;2022-08-03T14:25:42;11.75;;;2.72;;
5040;SDS011;2539;52.568;13.364;2022-08-03T14:28:08;4.05;;;2.10;;
5040;SDS011;2539;52.568;13.364;2022-08-03T14:30:34;9.10;;;2.25;;
5040;SDS011;2539;52.568;13.364;2022-08-03T14:33:01;5.47;;;1.92;;
5040;SDS011;2539;52.568;13.364;2022-08-03T14:35:27;7.75;;;2.65;;
5040;SDS011;2539;52.568;13.364;2022-08-03T14:37:53;11.63;;;2.28;;
5040;SDS011;2539;52.568;13.364;2022-08-03T14:40:20;5.82;;;3.40;;
5040;SDS011;2539;52.568;13.364;2022-08-03T14:42:46;3.35;;;1.75;;
5040;SDS011;2539;52.568;13.364;2022-08-03T14:45:12;2.90;;;2.17;;
5040;SDS011;2539;52.568;13.364;2022-08-03T14:47:39;4.97;;;2.40;;
5040;SDS011;2539;52.568;13.364;2022-08-03T14:50:06;4.93;;;3.20;;
5040;SDS011;2539;52.568;13.364;2022-08-03T14:52:33;9.52;;;7.80;;
5040;SDS011;2539;52.568;13.364;2022-08-03T14:54:59;3.20;;;2.80;;
5040;SDS011;2539;52.568;13.364;2022-08-03T14:57:26;4.20;;;3.70;;
5040;SDS011;2539;52.568;13.364;2022-08-03T14:59:52;5.30;;;1.52;;
5040;SDS011;2539;52.568;13.364;2022-08-03T15:02:18;4.97;;;1.77;;
5040;SDS011;2539;52.568;13.364;2022-08-03T15:04:45;2.40;;;1.92;;
5040;SDS011;2539;52.568;13.364;2022-08-03T15:07:11;2.70;;;1.77;;
5040;SDS011;2539;52.568;13.364;2022-08-03T15:09:37;2.38;;;2.00;;
5040;SDS011;2539;52.568;13.364;2022-08-03T15:12:04;2.55;;;1.80;;
5040;SDS011;2539;52.568;13.364;2022-08-03T15:14:31;6.75;;;1.95;;
5040;SDS011;2539;52.568;13.364;2022-08-03T15:16:58;3.25;;;1.77;;
5040;SDS011;2539;52.568;13.364;2022-08-03T15:19:24;7.70;;;2.80;;
5040;SDS011;2539;52.568;13.364;2022-08-03T15:21:50;4.65;;;2.10;;
5040;SDS011;2539;52.568;13.364;2022-08-03T15:24:16;6.18;;;2.20;;
5040;SDS011;2539;52.568;13.364;2022-08-03T15:26:42;3.63;;;2.10;;
5040;SDS011;2539;52.568;13.364;2022-08-03T15:29:09;3.90;;;1.92;;
5040;SDS011;2539;52.568;13.364;2022-08-03T15:31:35;4.65;;;2.30;;
5040;SDS011;2539;52.568;13.364;2022-08-03T15:34:01;2.65;;;1.75;;
5040;SDS011;2539;52.568;13.364;2022-08-03T15:36:27;2.80;;;1.77;;
5040;SDS011;2539;52.568;13.364;2022-08-03T15:38:53;3.95;;;2.00;;
5040;SDS011;2539;52.568;13.364;2022-08-03T15:41:19;2.88;;;2.03;;
5040;SDS011;2539;52.568;13.364;2022-08-03T15:43:46;2.80;;;1.90;;
5040;SDS011;2539;52.568;13.364;2022-08-03T15:46:12;4.45;;;2.08;;
5040;SDS011;2539;52.568;13.364;2022-08-03T15:48:39;2.65;;;1.88;;
5040;SDS011;2539;52.568;13.364;2022-08-03T15:51:06;3.15;;;1.40;;
5040;SDS011;2539;52.568;13.364;2022-08-03T15:53:33;3.35;;;1.90;;
5040;SDS011;2539;52.568;13.364;2022-08-03T15:55:59;2.65;;;1.88;;
5040;SDS011;2539;52.568;13.364;2022-08-03T15:58:26;3.30;;;1.50;;